Time;durP1;ratioP1;P1;durP2;ratioP2;P2;SDS_P1;SDS_P2;PMS_P1;PMS_P2;Temp;Humidity;BMP_temperature;BMP_pressure;BME280_temperature;BME280_humidity;BME280_pressure;Samples;Min_cycle;Max_cycle;Signal;HPM_P1;HPM_P2
2023/05/17 00:01:26;;;;;;;;;;;;;;;13.66;100.00;99578.03;5039532;28;19921;-46
2023/05/17 00:03:55;;;;;;;;;;;;;;;13.00;100.00;99577.66;5039625;28;19928;-41
2023/05/17 00:06:20;;;;;;;;;;;;;;;12.65;100.00;99608.06;5040719;28;20591;-41
2023/05/17 00:08:45;;;;;;;;;;;;;;;11.86;100.00;99623.22;5041055;28;19921;-41
2023/05/17 00:11:10;;;;;;;;;;;;;;;12.28;100.00;99650.50;5041056;28;19928;-41
2023/05/17 00:13:36;;;;;;;;;;;;;;;12.21;100.00;99656.72;5039685;28;19921;-41
2023/05/17 00:16:02;;;;;;;;;;;;;;;11.79;100.00;99675.03;5040009;28;20447;-41
2023/05/17 00:18:27;;;;;;;;;;;;;;;12.51;100.00;99678.25;5034777;28;19929;-42
2023/05/17 00:20:52;;;;;;;;;;;;;;;12.62;100.00;99665.84;5041496;28;19921;-41
2023/05/17 00:23:18;;;;;;;;;;;;;;;12.00;100.00;99679.66;5040800;28;19924;-41
2023/05/17 00:25:43;;;;;;;;;;;;;;;11.83;100.00;99687.81;5040050;28;19920;-42
2023/05/17 00:28:08;;;;;;;;;;;;;;;12.39;100.00;99694.94;5038279;28;19928;-42
2023/05/17 00:30:34;;;;;;;;;;;;;;;12.38;100.00;99698.41;5040145;28;19921;-41
2023/05/17 00:32:59;;;;;;;;;;;;;;;12.66;100.00;99685.56;5040090;28;19932;-42
2023/05/17 00:35:24;;;;;;;;;;;;;;;12.01;100.00;99696.00;5036106;28;19963;-42
2023/05/17 00:37:50;;;;;;;;;;;;;;;12.81;100.00;99707.50;5040788;28;19920;-42
2023/05/17 00:40:15;;;;;;;;;;;;;;;12.59;100.00;99693.50;5040578;28;19943;-42
2023/05/17 00:42:40;;;;;;;;;;;;;;;12.58;100.00;99691.84;5039952;28;19920;-42
2023/05/17 00:45:06;;;;;;;;;;;;;;;12.72;100.00;99697.44;5039845;28;19921;-42
2023/05/17 00:47:31;;;;;;;;;;;;;;;12.11;100.00;99700.88;5023107;28;19920;-41
2023/05/17 00:49:56;;;;;;;;;;;;;;;12.80;100.00;99705.81;5040301;28;19921;-42
2023/05/17 00:52:22;;;;;;;;;;;;;;;12.27;100.00;99692.69;5040795;28;19920;-41
2023/05/17 00:54:47;;;;;;;;;;;;;;;12.24;100.00;99705.69;5039093;28;19921;-41
2023/05/17 00:57:12;;;;;;;;;;;;;;;11.63;100.00;99723.59;5023089;28;19916;-42
2023/05/17 00:59:37;;;;;;;;;;;;;;;11.73;100.00;99741.41;5040003;28;20009;-42
2023/05/17 01:02:03;;;;;;;;;;;;;;;12.06;100.00;99754.34;5022885;28;19916;-42
2023/05/17 01:04:28;;;;;;;;;;;;;;;12.11;100.00;99764.56;5037504;28;19931;-41
2023/05/17 01:06:53;;;;;;;;;;;;;;;12.08;100.00;99767.22;5021426;28;19955;-41
2023/05/17 01:09:19;;;;;;;;;;;;;;;12.22;100.00;99769.44;5039797;28;19917;-42
2023/05/17 01:12:02;;;;;;;;;;;;;;;12.00;100.00;99767.44;5038448;28;19931;-42
2023/05/17 01:14:50;;;;;;;;;;;;;;;12.02;100.00;99778.56;5039647;28;19928;-42
2023/05/17 01:17:15;;;;;;;;;;;;;;;11.76;100.00;99791.25;5039198;28;20035;-42
2023/05/17 01:19:43;;;;;;;;;;;;;;;11.52;100.00;99799.53;5039588;28;19990;-41
2023/05/17 01:22:11;;;;;;;;;;;;;;;11.41;100.00;99821.28;5039113;28;20538;-42
2023/05/17 01:24:55;;;;;;;;;;;;;;;11.84;100.00;99831.47;5039343;28;19924;-41
2023/05/17 01:27:20;;;;;;;;;;;;;;;12.66;100.00;99826.84;5039587;28;19920;-41
2023/05/17 01:29:46;;;;;;;;;;;;;;;12.82;100.00;99797.09;5038816;28;20281;-42
2023/05/17 01:32:11;;;;;;;;;;;;;;;12.48;100.00;99787.69;5021053;28;19925;-41
2023/05/17 01:34:37;;;;;;;;;;;;;;;12.67;100.00;99780.28;5021337;28;19917;-41
2023/05/17 01:37:02;;;;;;;;;;;;;;;12.06;100.00;99769.84;5039228;28;20204;-41
2023/05/17 01:39:27;;;;;;;;;;;;;;;13.08;100.00;99772.22;5039623;28;20025;-41
2023/05/17 01:42:00;;;;;;;;;;;;;;;14.40;100.00;99692.78;5020977;28;19925;-41
2023/05/17 01:44:41;;;;;;;;;;;;;;;14.35;100.00;99633.38;5021444;28;20011;-41
2023/05/17 01:47:08;;;;;;;;;;;;;;;14.95;100.00;99599.97;5020405;28;20012;-41
2023/05/17 01:49:36;;;;;;;;;;;;;;;14.58;100.00;99579.84;5005130;28;19967;-41
2023/05/17 01:52:05;;;;;;;;;;;;;;;14.35;100.00;99573.78;5021414;28;20505;-41
2023/05/17 01:54:31;;;;;;;;;;;;;;;14.35;100.00;99562.56;5038790;28;20015;-41
2023/05/17 01:57:00;;;;;;;;;;;;;;;14.02;100.00;99591.41;5039621;28;19999;-41
2023/05/17 01:59:25;;;;;;;;;;;;;;;13.16;100.00;99630.59;5021665;28;19925;-41
2023/05/17 02:01:55;;;;;;;;;;;;;;;13.05;100.00;99649.03;5004650;28;19921;-41
2023/05/17 02:04:20;;;;;;;;;;;;;;;13.76;100.00;99644.13;5019724;28;19982;-41
2023/05/17 02:06:45;;;;;;;;;;;;;;;13.81;100.00;99639.66;5038754;28;19916;-42
2023/05/17 02:09:10;;;;;;;;;;;;;;;13.56;100.00;99639.66;5037478;28;20016;-41
2023/05/17 02:11:36;;;;;;;;;;;;;;;13.06;100.00;99658.47;5034989;28;20015;-42
2023/05/17 02:14:01;;;;;;;;;;;;;;;14.21;100.00;99627.88;5037978;28;20015;-42
2023/05/17 02:16:26;;;;;;;;;;;;;;;14.31;100.00;99613.66;5038068;28;20003;-41
2023/05/17 02:18:51;;;;;;;;;;;;;;;15.15;100.00;99593.13;5038472;28;20027;-41
2023/05/17 02:21:17;;;;;;;;;;;;;;;14.36;100.00;99578.03;5019585;28;19991;-41
2023/05/17 02:23:42;;;;;;;;;;;;;;;15.56;100.00;99559.41;5038435;28;20015;-42
2023/05/17 02:26:07;;;;;;;;;;;;;;;16.00;100.00;99520.22;5038627;28;19928;-41
2023/05/17 02:28:33;;;;;;;;;;;;;;;15.71;100.00;99509.41;5037616;28;19921;-42
2023/05/17 02:30:58;;;;;;;;;;;;;;;15.57;100.00;99529.91;5039305;28;19924;-41
2023/05/17 02:33:23;;;;;;;;;;;;;;;14.86;100.00;99558.84;5038822;28;20092;-42
2023/05/17 02:35:49;;;;;;;;;;;;;;;15.34;100.00;99562.06;5036923;28;19931;-42
2023/05/17 02:38:14;;;;;;;;;;;;;;;14.96;100.00;99580.91;5038982;28;19967;-42
2023/05/17 02:40:40;;;;;;;;;;;;;;;15.27;100.00;99572.69;5038521;28;19921;-42
2023/05/17 02:43:05;;;;;;;;;;;;;;;15.09;100.00;99570.88;5040249;28;20582;-42
2023/05/17 02:45:30;;;;;;;;;;;;;;;14.83;100.00;99566.75;5041741;28;19958;-42
2023/05/17 02:47:55;;;;;;;;;;;;;;;13.56;100.00;99611.19;5042025;28;19963;-41
2023/05/17 02:50:21;;;;;;;;;;;;;;;13.59;100.00;99639.53;5041781;28;20003;-41
2023/05/17 02:52:46;;;;;;;;;;;;;;;13.51;100.00;99633.78;5042883;28;20003;-42
2023/05/17 02:55:11;;;;;;;;;;;;;;;12.25;100.00;99681.59;5041335;28;19967;-41
2023/05/17 02:57:36;;;;;;;;;;;;;;;12.66;100.00;99698.47;5042372;28;19929;-42
2023/05/17 03:00:02;;;;;;;;;;;;;;;13.20;100.00;99712.34;5041021;28;19929;-42
2023/05/17 03:02:27;;;;;;;;;;;;;;;12.70;100.00;99713.00;5041723;28;19927;-41
2023/05/17 03:04:52;;;;;;;;;;;;;;;12.25;100.00;99733.22;5038993;28;20302;-41
2023/05/17 03:07:18;;;;;;;;;;;;;;;12.24;100.00;99757.34;5041796;28;19940;-42
2023/05/17 03:09:43;;;;;;;;;;;;;;;11.61;100.00;99790.72;5042040;28;19927;-41
2023/05/17 03:12:08;;;;;;;;;;;;;;;12.16;100.00;99835.03;5023756;28;19916;-41
2023/05/17 03:14:33;;;;;;;;;;;;;;;12.09;100.00;99831.75;5040590;28;19921;-41
2023/05/17 03:16:59;;;;;;;;;;;;;;;13.26;100.00;99836.31;5041945;28;19916;-42
2023/05/17 03:19:24;;;;;;;;;;;;;;;12.44;100.00;99839.47;5041323;28;19921;-41
2023/05/17 03:21:49;;;;;;;;;;;;;;;12.79;100.00;99838.53;5040142;28;20298;-41
2023/05/17 03:24:15;;;;;;;;;;;;;;;12.40;100.00;99864.53;5022701;28;20409;-42
2023/05/17 03:26:40;;;;;;;;;;;;;;;12.42;100.00;99875.69;5039429;28;20437;-41
2023/05/17 03:29:05;;;;;;;;;;;;;;;12.35;100.00;99889.63;5040729;28;20944;-41
2023/05/17 03:31:30;;;;;;;;;;;;;;;12.85;100.00;99900.41;5040668;28;19924;-41
2023/05/17 03:33:56;;;;;;;;;;;;;;;13.72;100.00;99891.06;5041296;28;20004;-41
2023/05/17 03:36:21;;;;;;;;;;;;;;;12.89;100.00;99850.31;5022540;28;20341;-41
2023/05/17 03:38:46;;;;;;;;;;;;;;;12.44;100.00;99868.75;5039871;28;19929;-41
2023/05/17 03:41:12;;;;;;;;;;;;;;;12.35;100.00;99887.06;5041521;28;19931;-41
2023/05/17 03:43:37;;;;;;;;;;;;;;;11.71;100.00;99905.72;5040832;28;19992;-41
2023/05/17 03:46:02;;;;;;;;;;;;;;;11.97;100.00;99929.28;5040638;28;20007;-41
2023/05/17 03:48:27;;;;;;;;;;;;;;;12.16;100.00;99961.56;5040748;28;20016;-42
2023/05/17 03:50:53;;;;;;;;;;;;;;;12.46;100.00;99985.81;5040306;28;19923;-41
2023/05/17 03:53:18;;;;;;;;;;;;;;;11.90;100.00;99996.53;5039982;28;20003;-41
2023/05/17 03:55:43;;;;;;;;;;;;;;;11.30;100.00;100020.91;5040618;28;20158;-41
2023/05/17 03:58:08;;;;;;;;;;;;;;;11.63;100.00;100065.03;5040503;28;20037;-41
2023/05/17 04:00:33;;;;;;;;;;;;;;;11.09;100.00;100108.97;5040898;28;19999;-42
2023/05/17 04:02:59;;;;;;;;;;;;;;;11.51;100.00;100163.28;5039866;28;20029;-41
2023/05/17 04:05:25;;;;;;;;;;;;;;;11.29;100.00;100202.31;5040215;28;19952;-41
2023/05/17 04:07:50;;;;;;;;;;;;;;;11.73;100.00;100246.34;5039281;28;19944;-42
2023/05/17 04:10:16;;;;;;;;;;;;;;;11.87;100.00;100266.75;5040685;28;19920;-41
2023/05/17 04:12:41;;;;;;;;;;;;;;;11.49;100.00;100284.56;5039715;28;19927;-41
2023/05/17 04:15:06;;;;;;;;;;;;;;;11.70;100.00;100324.66;5040503;28;19948;-41
2023/05/17 04:17:31;;;;;;;;;;;;;;;11.54;100.00;100351.56;5040276;28;20437;-41
2023/05/17 04:19:57;;;;;;;;;;;;;;;11.08;100.00;100377.94;5039560;28;19925;-41
2023/05/17 04:22:22;;;;;;;;;;;;;;;11.18;100.00;100409.66;5038390;28;19979;-41
2023/05/17 04:24:47;;;;;;;;;;;;;;;11.33;100.00;100465.34;5038696;28;19981;-41
2023/05/17 04:27:13;;;;;;;;;;;;;;;11.61;100.00;100508.00;5038712;28;19932;-41
2023/05/17 04:29:39;;;;;;;;;;;;;;;11.15;100.00;100526.53;5041365;28;19920;-41
2023/05/17 04:32:05;;;;;;;;;;;;;;;11.54;100.00;100560.56;5038771;28;19978;-41
2023/05/17 04:34:30;;;;;;;;;;;;;;;11.00;100.00;100562.78;5041032;28;19924;-41
2023/05/17 04:36:56;;;;;;;;;;;;;;;11.36;100.00;100609.72;5038488;28;20503;-41
2023/05/17 04:39:21;;;;;;;;;;;;;;;11.53;100.00;100638.81;5037555;28;19956;-41
2023/05/17 04:41:46;;;;;;;;;;;;;;;11.40;100.00;100650.09;5039755;28;19924;-41
2023/05/17 04:44:12;;;;;;;;;;;;;;;11.28;100.00;100651.91;5038275;28;19923;-42
2023/05/17 04:46:37;;;;;;;;;;;;;;;11.14;100.00;100676.97;5018686;28;19920;-41
2023/05/17 04:49:02;;;;;;;;;;;;;;;11.49;100.00;100696.47;5039991;28;19944;-41
2023/05/17 04:51:28;;;;;;;;;;;;;;;11.21;100.00;100704.41;5039448;28;19966;-41
2023/05/17 04:53:53;;;;;;;;;;;;;;;11.71;100.00;100720.38;5021397;28;19944;-42
2023/05/17 04:56:18;;;;;;;;;;;;;;;11.16;100.00;100701.03;5038366;28;20011;-42
2023/05/17 04:58:44;;;;;;;;;;;;;;;11.33;100.00;100720.66;5020801;28;19921;-42
2023/05/17 05:01:09;;;;;;;;;;;;;;;11.06;100.00;100738.91;5038318;28;19963;-42
2023/05/17 05:03:35;;;;;;;;;;;;;;;11.48;100.00;100782.47;5038847;28;19943;-42
2023/05/17 05:06:00;;;;;;;;;;;;;;;11.46;100.00;100792.81;5036528;28;20373;-42
2023/05/17 05:08:25;;;;;;;;;;;;;;;11.55;100.00;100807.38;5038961;28;20006;-42
2023/05/17 05:10:51;;;;;;;;;;;;;;;11.76;100.00;100813.25;5038727;28;19999;-42
2023/05/17 05:13:16;;;;;;;;;;;;;;;11.07;100.00;100791.34;5038543;28;20027;-42
2023/05/17 05:15:41;;;;;;;;;;;;;;;11.60;100.00;100833.13;5037953;28;20011;-42
2023/05/17 05:18:06;;;;;;;;;;;;;;;11.36;100.00;100839.28;5038661;28;19951;-41
2023/05/17 05:20:32;;;;;;;;;;;;;;;11.58;100.00;100871.84;5038937;28;19955;-42
2023/05/17 05:22:57;;;;;;;;;;;;;;;11.26;100.00;100852.25;5020290;28;19939;-42
2023/05/17 05:25:23;;;;;;;;;;;;;;;11.51;100.00;100870.19;5037139;28;19963;-42
2023/05/17 05:27:48;;;;;;;;;;;;;;;11.41;100.00;100859.06;5038954;28;19913;-42
2023/05/17 05:30:20;;;;;;;;;;;;;;;11.45;100.00;100881.41;5040585;28;19917;-42
2023/05/17 05:32:45;;;;;;;;;;;;;;;11.69;100.00;100898.44;5039032;28;20535;-42
2023/05/17 05:35:11;;;;;;;;;;;;;;;12.34;100.00;100903.19;5040261;28;19993;-42
2023/05/17 05:37:36;;;;;;;;;;;;;;;12.20;100.00;100869.72;5039414;28;20058;-42
2023/05/17 05:40:01;;;;;;;;;;;;;;;12.00;100.00;100844.06;5039787;28;20008;-42
2023/05/17 05:42:28;;;;;;;;;;;;;;;12.25;100.00;100856.78;5039941;28;20015;-42
2023/05/17 05:44:53;;;;;;;;;;;;;;;11.98;100.00;100839.78;5039294;28;19919;-42
2023/05/17 05:47:18;;;;;;;;;;;;;;;11.76;100.00;100847.66;5039043;28;19921;-42
2023/05/17 05:49:44;;;;;;;;;;;;;;;11.23;100.00;100834.22;5039673;28;19917;-42
2023/05/17 05:52:09;;;;;;;;;;;;;;;11.76;100.00;100875.19;5021635;28;19916;-42
2023/05/17 05:54:35;;;;;;;;;;;;;;;11.72;100.00;100841.66;5039571;28;20540;-42
2023/05/17 05:57:00;;;;;;;;;;;;;;;12.59;100.00;100875.38;5040243;28;20340;-42
2023/05/17 05:59:25;;;;;;;;;;;;;;;12.94;100.00;100832.75;5038554;28;20378;-42
2023/05/17 06:01:51;;;;;;;;;;;;;;;11.99;100.00;100753.69;5039757;28;20364;-42
2023/05/17 06:04:16;;;;;;;;;;;;;;;12.59;100.00;100760.78;5039402;28;19920;-42
2023/05/17 06:06:41;;;;;;;;;;;;;;;12.86;100.00;100733.72;5039567;28;19921;-42
2023/05/17 06:09:10;;;;;;;;;;;;;;;14.66;100.00;100697.00;5039478;28;19990;-42
2023/05/17 06:11:36;;;;;;;;;;;;;;;13.16;100.00;100553.97;5039838;28;19921;-42
2023/05/17 06:14:01;;;;;;;;;;;;;;;12.78;100.00;100563.22;5021775;28;19924;-42
2023/05/17 06:16:26;;;;;;;;;;;;;;;12.55;100.00;100582.50;5039038;28;19917;-42
2023/05/17 06:18:51;;;;;;;;;;;;;;;13.31;100.00;100584.75;5043315;28;19920;-42
2023/05/17 06:21:17;;;;;;;;;;;;;;;13.01;100.00;100582.69;5043769;28;20350;-42
2023/05/17 06:23:42;;;;;;;;;;;;;;;12.20;100.00;100553.72;5042762;28;20643;-42
2023/05/17 06:26:09;;;;;;;;;;;;;;;12.82;100.00;100572.63;5040897;28;20594;-42
2023/05/17 06:28:34;;;;;;;;;;;;;;;12.23;100.00;100545.97;5041872;28;20417;-42
2023/05/17 06:31:00;;;;;;;;;;;;;;;12.81;100.00;100545.06;5042749;28;19975;-42
2023/05/17 06:33:25;;;;;;;;;;;;;;;11.76;100.00;100483.72;5043383;28;19917;-42
2023/05/17 06:35:50;;;;;;;;;;;;;;;11.79;100.00;100524.13;5042909;28;19927;-42
2023/05/17 06:38:15;;;;;;;;;;;;;;;12.29;100.00;100566.53;5042318;28;19917;-42
2023/05/17 06:40:41;;;;;;;;;;;;;;;12.46;100.00;100577.47;5043206;28;19983;-42
2023/05/17 06:43:06;;;;;;;;;;;;;;;12.75;100.00;100568.44;5041111;28;20336;-42
2023/05/17 06:45:31;;;;;;;;;;;;;;;12.45;100.00;100538.72;5042941;28;19934;-42
2023/05/17 06:47:56;;;;;;;;;;;;;;;12.65;100.00;100484.16;5042213;28;19939;-42
2023/05/17 06:50:21;;;;;;;;;;;;;;;13.07;100.00;100429.97;5043209;28;19955;-42
2023/05/17 06:52:47;;;;;;;;;;;;;;;12.03;100.00;100358.59;5042965;28;19923;-42
2023/05/17 06:55:12;;;;;;;;;;;;;;;11.80;100.00;100382.16;5042791;28;19920;-42
2023/05/17 06:57:37;;;;;;;;;;;;;;;11.88;100.00;100397.53;5042256;28;19925;-42
2023/05/17 07:00:05;;;;;;;;;;;;;;;12.55;100.00;100431.78;5041770;28;20234;-42
2023/05/17 07:02:31;;;;;;;;;;;;;;;13.45;100.00;100413.69;5042594;28;19928;-42
2023/05/17 07:04:56;;;;;;;;;;;;;;;12.98;100.00;100366.38;5025266;28;20890;-42
2023/05/17 07:07:22;;;;;;;;;;;;;;;12.64;100.00;100384.25;5042596;28;19920;-42
2023/05/17 07:09:47;;;;;;;;;;;;;;;13.20;100.00;100320.19;5042461;28;20019;-42
2023/05/17 07:12:12;;;;;;;;;;;;;;;13.45;100.00;100273.13;5042907;28;19955;-43
2023/05/17 07:14:37;;;;;;;;;;;;;;;13.71;100.00;100224.16;5042303;28;20294;-42
2023/05/17 07:17:03;;;;;;;;;;;;;;;14.11;100.00;100207.56;5043542;28;20297;-42
2023/05/17 07:19:28;;;;;;;;;;;;;;;15.08;100.00;100155.50;5041960;28;20271;-42
2023/05/17 07:21:53;;;;;;;;;;;;;;;16.33;100.00;100062.81;5025134;28;20336;-42
2023/05/17 07:24:18;;;;;;;;;;;;;;;16.87;100.00;99936.69;5022922;28;19916;-42
2023/05/17 07:26:44;;;;;;;;;;;;;;;14.99;100.00;99905.00;5041840;28;19921;-42
2023/05/17 07:29:10;;;;;;;;;;;;;;;15.31;100.00;99918.56;5042287;28;19948;-42
2023/05/17 07:31:35;;;;;;;;;;;;;;;13.97;100.00;99914.44;5042133;28;19963;-41
2023/05/17 07:34:01;;;;;;;;;;;;;;;13.60;100.00;99951.81;5042509;28;19917;-41
2023/05/17 07:36:29;;;;;;;;;;;;;;;12.93;100.00;99990.66;5042502;28;20325;-41
2023/05/17 07:38:54;;;;;;;;;;;;;;;13.63;100.00;100026.78;5042013;28;19921;-41
2023/05/17 07:41:22;;;;;;;;;;;;;;;13.46;100.00;99998.78;5043235;28;19939;-41
2023/05/17 07:43:47;;;;;;;;;;;;;;;12.86;100.00;100012.41;5040958;28;19982;-41
2023/05/17 07:46:12;;;;;;;;;;;;;;;12.99;100.00;100031.91;5041838;28;19925;-41
2023/05/17 07:48:37;;;;;;;;;;;;;;;14.27;100.00;99990.34;5041853;28;19963;-42
2023/05/17 07:51:03;;;;;;;;;;;;;;;15.93;100.00;99911.06;5042564;28;19971;-42
2023/05/17 07:53:28;;;;;;;;;;;;;;;16.14;100.00;99873.81;5042022;28;19960;-42
2023/05/17 07:55:53;;;;;;;;;;;;;;;16.31;100.00;99834.16;5041061;28;19931;-42
2023/05/17 07:58:18;;;;;;;;;;;;;;;14.62;100.00;99857.03;5040781;28;19965;-42
2023/05/17 08:00:43;;;;;;;;;;;;;;;14.44;100.00;99893.94;5042160;28;20011;-42
2023/05/17 08:03:09;;;;;;;;;;;;;;;13.23;100.00;99895.91;5041713;28;19994;-42
2023/05/17 08:05:34;;;;;;;;;;;;;;;13.75;100.00;99899.59;5041236;28;19956;-42
2023/05/17 08:07:59;;;;;;;;;;;;;;;13.32;100.00;99929.31;5041532;28;19917;-41
2023/05/17 08:10:27;;;;;;;;;;;;;;;13.65;100.00;99931.81;5042129;28;19919;-42
2023/05/17 08:12:53;;;;;;;;;;;;;;;14.85;100.00;99915.03;5041385;28;19921;-42
2023/05/17 08:15:18;;;;;;;;;;;;;;;14.60;100.00;99897.72;5041842;28;19920;-42
2023/05/17 08:17:43;;;;;;;;;;;;;;;14.99;100.00;99902.41;5041497;28;19990;-42
2023/05/17 08:20:09;;;;;;;;;;;;;;;14.92;100.00;99881.97;5041328;28;19921;-42
2023/05/17 08:22:34;;;;;;;;;;;;;;;14.47;100.00;99867.06;5041279;28;19970;-42
2023/05/17 08:24:59;;;;;;;;;;;;;;;16.19;100.00;99856.28;5039574;28;19931;-42
2023/05/17 08:27:25;;;;;;;;;;;;;;;15.23;100.00;99856.56;5040914;28;19928;-42
2023/05/17 08:29:52;;;;;;;;;;;;;;;15.51;100.00;99846.88;5041753;28;19972;-42
2023/05/17 08:32:17;;;;;;;;;;;;;;;15.28;100.00;99856.41;5041322;28;19963;-42
2023/05/17 08:34:43;;;;;;;;;;;;;;;13.25;100.00;99898.44;5040841;28;19955;-42
2023/05/17 08:37:08;;;;;;;;;;;;;;;13.96;100.00;99866.16;5040714;28;19952;-42
2023/05/17 08:39:34;;;;;;;;;;;;;;;14.08;100.00;99834.66;5041106;28;19970;-42
2023/05/17 08:42:00;;;;;;;;;;;;;;;14.76;100.00;99851.38;5041532;28;19917;-42
2023/05/17 08:44:27;;;;;;;;;;;;;;;17.52;100.00;99781.03;5023464;28;19971;-42
2023/05/17 08:46:52;;;;;;;;;;;;;;;14.82;100.00;99795.84;5040977;28;19920;-42
2023/05/17 08:49:21;;;;;;;;;;;;;;;15.40;100.00;99804.03;5023090;28;19920;-42
2023/05/17 08:51:48;;;;;;;;;;;;;;;15.59;100.00;99803.31;5040780;28;20401;-42
2023/05/17 08:54:14;;;;;;;;;;;;;;;16.02;100.00;99827.56;5023469;28;19920;-42
2023/05/17 08:56:39;;;;;;;;;;;;;;;16.34;100.00;99817.59;5040393;28;20928;-42
2023/05/17 08:59:04;;;;;;;;;;;;;;;16.55;100.00;99816.66;5041086;28;20463;-42
2023/05/17 09:01:30;;;;;;;;;;;;;;;16.22;100.00;99783.41;5040004;28;20090;-42
2023/05/17 09:03:55;;;;;;;;;;;;;;;17.14;100.00;99763.69;5039466;28;20433;-42
2023/05/17 09:06:21;;;;;;;;;;;;;;;17.07;100.00;99809.16;5039907;28;19916;-42
2023/05/17 09:08:46;;;;;;;;;;;;;;;16.24;100.00;99807.59;5019284;28;19920;-42
2023/05/17 09:11:11;;;;;;;;;;;;;;;15.37;100.00;99850.88;5037784;28;20325;-42
2023/05/17 09:13:37;;;;;;;;;;;;;;;14.54;100.00;99858.16;5039352;28;20337;-42
2023/05/17 09:16:02;;;;;;;;;;;;;;;14.14;100.00;99860.38;5037634;28;19925;-42
2023/05/17 09:18:28;;;;;;;;;;;;;;;14.95;100.00;99841.16;5019289;28;20320;-42
2023/05/17 09:20:53;;;;;;;;;;;;;;;14.67;100.00;99863.81;5018600;28;19920;-42
2023/05/17 09:23:19;;;;;;;;;;;;;;;15.09;100.00;99830.28;5021187;28;19916;-42
2023/05/17 09:25:48;;;;;;;;;;;;;;;15.25;100.00;99843.53;5039094;28;20289;-42
2023/05/17 09:28:13;;;;;;;;;;;;;;;16.56;100.00;99817.47;5039265;28;20011;-42
2023/05/17 09:30:38;;;;;;;;;;;;;;;15.83;100.00;99828.31;5020586;28;19917;-42
2023/05/17 09:33:07;;;;;;;;;;;;;;;17.11;100.00;99797.69;5032984;28;19963;-42
2023/05/17 09:35:33;;;;;;;;;;;;;;;15.03;100.00;99833.97;5018259;28;19935;-42
2023/05/17 09:38:07;;;;;;;;;;;;;;;17.67;100.00;99798.50;5035636;28;19921;-42
2023/05/17 09:40:33;;;;;;;;;;;;;;;16.71;100.00;99757.84;5017004;28;20011;-42
2023/05/17 09:42:58;;;;;;;;;;;;;;;16.14;100.00;99819.25;5020851;28;20012;-42
2023/05/17 09:45:23;;;;;;;;;;;;;;;16.97;100.00;99807.91;5019868;28;20000;-42
2023/05/17 09:47:49;;;;;;;;;;;;;;;16.10;100.00;99809.88;5038807;28;20007;-42
2023/05/17 09:50:18;;;;;;;;;;;;;;;15.12;100.00;99805.97;5021458;28;20006;-42
2023/05/17 09:52:44;;;;;;;;;;;;;;;15.43;100.00;99800.47;5039066;28;20012;-42
2023/05/17 09:55:10;;;;;;;;;;;;;;;15.98;100.00;99790.47;5021189;28;20003;-42
2023/05/17 09:57:36;;;;;;;;;;;;;;;16.34;100.00;99769.03;5002290;28;19948;-42
2023/05/17 10:00:02;;;;;;;;;;;;;;;16.02;100.00;99796.41;5038291;28;20410;-42
2023/05/17 10:02:27;;;;;;;;;;;;;;;14.52;100.00;99816.75;5039627;28;19917;-42
2023/05/17 10:04:54;;;;;;;;;;;;;;;15.06;100.00;99794.09;5020604;28;19921;-42
2023/05/17 10:07:20;;;;;;;;;;;;;;;15.70;100.00;99769.97;5039837;28;19962;-42
2023/05/17 10:09:52;;;;;;;;;;;;;;;15.60;99.20;99789.41;5020491;28;19925;-42
2023/05/17 10:12:18;;;;;;;;;;;;;;;15.34;100.00;99814.63;5039294;28;20428;-42
2023/05/17 10:14:43;;;;;;;;;;;;;;;16.04;100.00;99779.81;5037901;28;19921;-42
2023/05/17 10:17:09;;;;;;;;;;;;;;;18.07;94.77;99722.78;5005757;28;19960;-42
2023/05/17 10:19:34;;;;;;;;;;;;;;;17.59;88.17;99745.13;5037025;28;19927;-42
2023/05/17 10:21:59;;;;;;;;;;;;;;;16.64;90.27;99753.81;5039464;28;19927;-42
2023/05/17 10:24:25;;;;;;;;;;;;;;;18.04;86.92;99715.09;5036728;28;19928;-43
2023/05/17 10:26:50;;;;;;;;;;;;;;;16.84;94.59;99791.16;5002904;28;19935;-42
2023/05/17 10:29:16;;;;;;;;;;;;;;;15.20;99.87;99829.91;5036376;28;19966;-42
2023/05/17 10:31:41;;;;;;;;;;;;;;;15.53;99.51;99798.34;5019465;28;20031;-42
2023/05/17 10:34:06;;;;;;;;;;;;;;;15.26;99.97;99799.38;5037538;28;20745;-42
2023/05/17 10:36:32;;;;;;;;;;;;;;;17.10;100.00;99785.56;5037605;28;20526;-42
2023/05/17 10:38:57;;;;;;;;;;;;;;;17.70;98.99;99774.09;5020240;28;20007;-42
2023/05/17 10:41:24;;;;;;;;;;;;;;;17.44;90.66;99724.09;5019170;28;20627;-42
2023/05/17 10:43:50;;;;;;;;;;;;;;;19.13;79.13;99668.34;5039684;28;19963;-42
2023/05/17 10:46:16;;;;;;;;;;;;;;;19.28;77.38;99684.09;5039762;28;19955;-42
2023/05/17 10:48:43;;;;;;;;;;;;;;;18.35;75.11;99685.66;5038540;28;19924;-42
2023/05/17 10:51:08;;;;;;;;;;;;;;;16.48;90.70;99795.25;5040049;28;19924;-43
2023/05/17 10:53:47;;;;;;;;;;;;;;;15.66;91.77;99784.81;5021004;28;20328;-43
2023/05/17 10:56:12;;;;;;;;;;;;;;;16.48;95.30;99778.81;5021290;28;20031;-42
2023/05/17 10:58:38;;;;;;;;;;;;;;;15.62;95.95;99785.00;5039087;28;20023;-43
2023/05/17 11:01:03;;;;;;;;;;;;;;;16.64;96.84;99779.84;5039433;28;21204;-43
2023/05/17 11:03:29;;;;;;;;;;;;;;;16.70;96.77;99761.38;5039599;28;19926;-42
2023/05/17 11:06:09;;;;;;;;;;;;;;;15.99;95.82;99768.78;5024626;28;19920;-42
2023/05/17 11:08:35;;;;;;;;;;;;;;;18.13;92.18;99715.47;5018497;28;19924;-42
2023/05/17 11:11:10;;;;;;;;;;;;;;;18.52;85.25;99685.63;5022674;28;20440;-43
2023/05/17 11:13:45;;;;;;;;;;;;;;;16.83;82.22;99716.59;5024109;28;19928;-43
2023/05/17 11:16:13;;;;;;;;;;;;;;;18.91;83.70;99701.81;5041094;28;20612;-43
2023/05/17 11:18:49;;;;;;;;;;;;;;;19.38;86.93;99729.63;5023338;28;19921;-42
2023/05/17 11:21:15;;;;;;;;;;;;;;;17.70;91.16;99751.50;5024963;28;20374;-43
2023/05/17 11:23:41;;;;;;;;;;;;;;;16.43;90.75;99765.19;5042432;28;19923;-43
2023/05/17 11:26:17;;;;;;;;;;;;;;;15.63;88.27;99763.34;5040036;28;19989;-43
2023/05/17 11:28:42;;;;;;;;;;;;;;;16.89;82.80;99703.31;5042747;28;19968;-42
2023/05/17 11:31:08;;;;;;;;;;;;;;;16.36;87.95;99756.81;5042618;28;19978;-43
2023/05/17 11:33:36;;;;;;;;;;;;;;;16.99;92.08;99768.78;5024139;28;20392;-43
2023/05/17 11:36:06;;;;;;;;;;;;;;;19.47;78.59;99661.19;5041368;28;19913;-43
2023/05/17 11:38:31;;;;;;;;;;;;;;;17.82;82.32;99729.22;5024380;28;20008;-43
2023/05/17 11:41:00;;;;;;;;;;;;;;;18.58;88.04;99739.22;5042346;28;20422;-43
2023/05/17 11:43:29;;;;;;;;;;;;;;;22.12;75.65;99647.91;5023876;28;20055;-43
2023/05/17 11:46:02;;;;;;;;;;;;;;;21.37;68.65;99645.09;5041553;28;19923;-43
2023/05/17 11:48:28;;;;;;;;;;;;;;;19.39;70.69;99694.78;5038984;28;19925;-43
2023/05/17 11:50:54;;;;;;;;;;;;;;;20.47;68.13;99658.66;5019184;28;19925;-43
2023/05/17 11:53:19;;;;;;;;;;;;;;;19.65;66.72;99673.19;5035906;28;19917;-43
2023/05/17 11:55:49;;;;;;;;;;;;;;;17.88;77.17;99744.56;5036378;28;19932;-43
2023/05/17 11:58:15;;;;;;;;;;;;;;;18.81;75.34;99691.03;5036826;28;19928;-43
2023/05/17 12:00:41;;;;;;;;;;;;;;;19.26;73.35;99678.13;5038601;28;19928;-43
2023/05/17 12:03:16;;;;;;;;;;;;;;;18.58;72.87;99687.88;5036451;28;19925;-43
2023/05/17 12:05:41;;;;;;;;;;;;;;;20.04;68.80;99650.00;5040377;28;19920;-43
2023/05/17 12:08:06;;;;;;;;;;;;;;;20.32;66.70;99643.09;5039134;28;19975;-43
2023/05/17 12:10:32;;;;;;;;;;;;;;;17.58;80.47;99762.50;5037713;28;19967;-43
2023/05/17 12:12:57;;;;;;;;;;;;;;;19.79;76.29;99666.31;5004147;28;20040;-43
2023/05/17 12:15:22;;;;;;;;;;;;;;;18.23;74.87;99691.53;5040135;28;19921;-43
2023/05/17 12:17:47;;;;;;;;;;;;;;;18.06;78.81;99713.25;5022297;28;19974;-43
2023/05/17 12:20:13;;;;;;;;;;;;;;;19.34;79.79;99700.25;5021340;28;19947;-43
2023/05/17 12:22:53;;;;;;;;;;;;;;;19.88;79.78;99723.28;5040255;28;19925;-43
2023/05/17 12:25:19;;;;;;;;;;;;;;;19.21;69.27;99658.31;5037946;28;19921;-43
2023/05/17 12:27:44;;;;;;;;;;;;;;;19.39;76.09;99706.06;5035383;28;19927;-43
2023/05/17 12:30:13;;;;;;;;;;;;;;;18.48;80.74;99744.09;5040231;28;19920;-43